Time;durP1;ratioP1;P1;durP2;ratioP2;P2;SDS_P1;SDS_P2;PMS_P1;PMS_P2;Temp;Humidity;BMP_temperature;BMP_pressure;BME280_temperature;BME280_humidity;BME280_pressure;Samples;Min_cycle;Max_cycle;Signal;HPM_P1;HPM_P2
2023/10/11 00:01:58;;;;;;;332.97;204.63;;;;;13.80;97485.00;;;;5030106;28;20231;-71
2023/10/11 00:04:48;;;;;;;191.50;112.97;;;;;13.90;97492.00;;;;5030935;28;20231;-72
2023/10/11 00:07:37;;;;;;;196.57;118.27;;;;;14.00;97489.00;;;;5029491;28;20213;-72
2023/10/11 00:10:28;;;;;;;189.50;114.50;;;;;13.80;97481.00;;;;5029174;28;20225;-71
2023/10/11 00:13:18;;;;;;;219.77;117.20;;;;;13.80;97486.00;;;;5027508;28;20590;-71
2023/10/11 00:16:08;;;;;;;281.23;128.90;;;;;13.80;97485.00;;;;5029425;28;20682;-71
2023/10/11 00:18:57;;;;;;;256.20;124.43;;;;;13.40;97482.00;;;;5027104;28;20262;-72
2023/10/11 00:21:49;;;;;;;278.27;122.40;;;;;13.40;97483.00;;;;5024975;28;20225;-71
2023/10/11 00:24:38;;;;;;;270.20;122.10;;;;;13.30;97489.00;;;;5029783;28;20201;-71
2023/10/11 00:27:29;;;;;;;250.40;127.77;;;;;13.30;97486.00;;;;5024979;28;20221;-71
2023/10/11 00:30:18;;;;;;;267.67;119.67;;;;;13.50;97484.00;;;;5027607;28;20221;-72
2023/10/11 00:33:08;;;;;;;257.23;121.00;;;;;12.90;97471.00;;;;5032897;28;20200;-72
2023/10/11 00:36:01;;;;;;;327.60;163.57;;;;;12.80;97479.00;;;;5036769;28;20199;-71
2023/10/11 00:38:51;;;;;;;277.90;135.33;;;;;13.30;97471.00;;;;5038023;28;20232;-72
2023/10/11 00:41:40;;;;;;;207.27;110.60;;;;;13.30;97479.00;;;;5022297;28;20217;-72
2023/10/11 00:44:32;;;;;;;206.17;113.50;;;;;13.60;97470.00;;;;5022018;28;20205;-71
2023/10/11 00:47:22;;;;;;;288.60;131.87;;;;;13.60;97466.00;;;;5026622;28;20251;-71
2023/10/11 00:50:14;;;;;;;305.13;135.10;;;;;13.80;97467.00;;;;5033562;28;20599;-72
2023/10/11 00:53:03;;;;;;;276.70;125.30;;;;;13.80;97469.00;;;;5061773;23;20230;-87
2023/10/11 00:55:54;;;;;;;276.70;119.97;;;;;13.50;97459.00;;;;5050830;28;20236;-85
2023/10/11 00:58:44;;;;;;;254.00;119.00;;;;;13.30;97451.00;;;;5035800;28;20693;-88
2023/10/11 01:01:35;;;;;;;300.90;123.00;;;;;13.20;97448.00;;;;5043335;28;20206;-87
2023/10/11 01:04:27;;;;;;;302.87;122.77;;;;;13.10;97451.00;;;;5039840;28;20224;-86
2023/10/11 01:07:17;;;;;;;274.57;129.80;;;;;12.70;97450.00;;;;5038988;28;20233;-84
2023/10/11 01:10:08;;;;;;;269.77;135.30;;;;;12.80;97448.00;;;;5045755;28;20221;-86
2023/10/11 01:12:58;;;;;;;241.33;116.17;;;;;12.30;97448.00;;;;5042745;28;20663;-86
2023/10/11 01:15:50;;;;;;;212.80;112.13;;;;;12.50;97454.00;;;;5039845;28;20235;-87
2023/10/11 01:18:42;;;;;;;223.00;114.93;;;;;12.10;97456.00;;;;5038075;28;20205;-87
2023/10/11 01:21:34;;;;;;;210.83;111.40;;;;;12.70;97455.00;;;;5041038;28;20205;-86
2023/10/11 01:24:23;;;;;;;215.63;112.43;;;;;13.20;97455.00;;;;5038840;28;20213;-88
2023/10/11 01:27:13;;;;;;;308.70;150.07;;;;;13.30;97454.00;;;;5041017;28;20225;-88
2023/10/11 01:30:03;;;;;;;316.23;152.03;;;;;13.20;97450.00;;;;5038297;28;20239;-85
2023/10/11 01:32:54;;;;;;;236.13;114.03;;;;;13.30;97448.00;;;;5037586;28;20205;-86
2023/10/11 01:35:43;;;;;;;236.73;113.73;;;;;13.10;97449.00;;;;5038164;28;20403;-87
2023/10/11 01:38:45;;;;;;;239.13;116.13;;;;;12.80;97449.00;;;;5040107;28;20813;-88
2023/10/11 01:41:36;;;;;;;301.33;113.03;;;;;12.50;97448.00;;;;5040573;28;20209;-88
2023/10/11 01:44:25;;;;;;;315.23;142.53;;;;;12.50;97443.00;;;;5038308;28;20205;-85
2023/10/11 01:47:16;;;;;;;223.50;113.07;;;;;12.70;97455.00;;;;5045722;28;20229;-87
2023/10/11 01:50:07;;;;;;;201.13;112.13;;;;;12.40;97450.00;;;;5043741;28;20228;-85
2023/10/11 01:52:56;;;;;;;193.00;105.77;;;;;12.70;97435.00;;;;5036900;28;20299;-88
2023/10/11 01:55:47;;;;;;;181.93;103.97;;;;;13.10;97440.00;;;;5035063;28;20236;-89
2023/10/11 01:58:37;;;;;;;194.03;109.73;;;;;13.20;97447.00;;;;5039392;28;20208;-89
2023/10/11 02:01:30;;;;;;;201.77;108.37;;;;;12.90;97444.00;;;;5039480;28;20198;-88
2023/10/11 02:04:20;;;;;;;199.13;106.87;;;;;12.20;97439.00;;;;5036219;28;20213;-87
2023/10/11 02:07:09;;;;;;;206.33;108.13;;;;;12.10;97432.00;;;;5035400;28;20266;-88
2023/10/11 02:09:58;;;;;;;220.20;110.47;;;;;12.30;97435.00;;;;5040465;28;20598;-86
2023/10/11 02:12:48;;;;;;;259.80;115.63;;;;;12.60;97447.00;;;;5036356;28;20205;-87
2023/10/11 02:15:39;;;;;;;276.83;142.57;;;;;12.50;97440.00;;;;5039999;28;20243;-85
2023/10/11 02:18:29;;;;;;;187.83;104.17;;;;;12.90;97441.00;;;;5038091;28;20201;-87
2023/10/11 02:21:19;;;;;;;185.23;104.13;;;;;12.50;97452.00;;;;5041894;28;20298;-86
2023/10/11 02:24:09;;;;;;;185.07;107.77;;;;;12.20;97433.00;;;;5041632;28;20224;-84
2023/10/11 02:26:58;;;;;;;162.10;98.50;;;;;12.30;97425.00;;;;5034321;28;20330;-87
2023/10/11 02:29:49;;;;;;;160.90;100.43;;;;;12.40;97438.00;;;;5035734;28;20209;-84
2023/10/11 02:32:41;;;;;;;155.97;99.13;;;;;11.80;97434.00;;;;5039737;28;20205;-86
2023/10/11 02:35:33;;;;;;;162.67;102.27;;;;;12.40;97431.00;;;;5037951;28;20217;-87
2023/10/11 02:38:23;;;;;;;152.10;97.80;;;;;12.20;97432.00;;;;5038811;28;20209;-85
2023/10/11 02:41:12;;;;;;;158.00;101.17;;;;;12.20;97434.00;;;;5038616;28;20208;-87
2023/10/11 02:44:02;;;;;;;157.07;98.63;;;;;12.30;97437.00;;;;5038862;28;20205;-88
2023/10/11 02:46:52;;;;;;;153.93;99.40;;;;;12.30;97431.00;;;;5040314;28;20748;-88
2023/10/11 02:49:42;;;;;;;151.80;95.87;;;;;12.60;97436.00;;;;5039158;28;20251;-87
2023/10/11 02:52:35;;;;;;;157.90;99.27;;;;;13.00;97439.00;;;;5041487;28;20563;-86
2023/10/11 02:55:25;;;;;;;159.20;102.30;;;;;12.70;97430.00;;;;5039014;28;20233;-87
2023/10/11 02:58:21;;;;;;;159.23;101.30;;;;;12.30;97435.00;;;;5040478;28;20214;-90
2023/10/11 03:01:16;;;;;;;154.57;104.17;;;;;11.60;97420.00;;;;5034343;28;20205;-87
2023/10/11 03:04:15;;;;;;;125.80;90.57;;;;;11.60;97424.00;;;;5035755;28;20212;-86
2023/10/11 03:07:04;;;;;;;126.40;93.60;;;;;11.40;97425.00;;;;5035859;28;20318;-83
2023/10/11 03:09:55;;;;;;;116.27;89.43;;;;;11.20;97420.00;;;;5045751;28;20181;-83
2023/10/11 03:12:44;;;;;;;97.47;80.10;;;;;11.30;97414.00;;;;5053354;28;20217;-85
2023/10/11 03:15:38;;;;;;;113.20;88.80;;;;;11.40;97415.00;;;;5043883;28;20231;-87
2023/10/11 03:18:31;;;;;;;91.00;77.20;;;;;11.60;97414.00;;;;5042808;28;20226;-86
2023/10/11 03:21:33;;;;;;;98.57;83.37;;;;;11.90;97416.00;;;;5040758;28;20611;-87
2023/10/11 03:24:25;;;;;;;96.73;78.93;;;;;11.90;97416.00;;;;5042073;28;20205;-83
2023/10/11 03:27:14;;;;;;;97.97;84.03;;;;;12.00;97418.00;;;;5044082;28;20691;-87
2023/10/11 03:30:11;;;;;;;106.80;88.67;;;;;12.00;97416.00;;;;5041746;28;20277;-87
2023/10/11 03:33:02;;;;;;;100.63;84.43;;;;;12.20;97419.00;;;;5037959;28;20280;-87
2023/10/11 03:35:51;;;;;;;95.93;80.83;;;;;12.40;97416.00;;;;5040209;28;20252;-86
2023/10/11 03:38:42;;;;;;;95.30;81.17;;;;;11.90;97417.00;;;;5037718;28;20202;-89
2023/10/11 03:41:32;;;;;;;91.40;78.63;;;;;11.40;97405.00;;;;5040287;28;20287;-86
2023/10/11 03:44:21;;;;;;;85.40;75.20;;;;;11.10;97406.00;;;;5041202;28;20213;-85
2023/10/11 03:47:14;;;;;;;86.57;76.87;;;;;11.30;97413.00;;;;5038254;28;20626;-88
2023/10/11 03:50:06;;;;;;;90.63;79.13;;;;;11.10;97409.00;;;;5040249;28;20258;-85
2023/10/11 03:53:06;;;;;;;76.63;68.87;;;;;11.20;97411.00;;;;5034593;28;20221;-88
2023/10/11 03:55:57;;;;;;;72.60;65.63;;;;;11.30;97400.00;;;;5037092;28;20229;-88
2023/10/11 03:58:50;;;;;;;74.87;67.50;;;;;11.60;97406.00;;;;5040660;28;20586;-88
2023/10/11 04:01:39;;;;;;;75.37;67.50;;;;;11.70;97403.00;;;;5037516;28;20213;-88
2023/10/11 04:04:29;;;;;;;72.13;65.17;;;;;12.10;97398.00;;;;5039427;28;20209;-86
2023/10/11 04:07:22;;;;;;;80.33;72.40;;;;;11.80;97409.00;;;;5041056;28;20221;-88
2023/10/11 04:10:20;;;;;;;76.27;68.90;;;;;11.50;97404.00;;;;5041025;28;20213;-87
2023/10/11 04:13:14;;;;;;;66.63;60.30;;;;;11.30;97403.00;;;;5040920;28;20221;-88
2023/10/11 04:16:07;;;;;;;67.83;61.30;;;;;11.40;97402.00;;;;5034762;28;20236;-86
2023/10/11 04:19:00;;;;;;;60.13;55.03;;;;;11.10;97397.00;;;;5035800;28;20687;-85
2023/10/11 04:21:56;;;;;;;58.70;53.43;;;;;10.70;97399.00;;;;5034308;28;20220;-87
2023/10/11 04:24:46;;;;;;;55.37;50.77;;;;;10.70;97403.00;;;;5035047;28;20213;-90
2023/10/11 04:27:48;;;;;;;57.33;51.93;;;;;11.10;97406.00;;;;5036781;28;20212;-89
2023/10/11 04:30:41;;;;;;;60.27;54.77;;;;;11.30;97410.00;;;;5039925;28;20201;-87
2023/10/11 04:33:31;;;;;;;55.13;50.57;;;;;11.80;97410.00;;;;5036577;28;20254;-87
2023/10/11 04:36:21;;;;;;;58.67;53.47;;;;;11.80;97412.00;;;;5036238;28;20221;-88
2023/10/11 04:39:16;;;;;;;65.93;59.53;;;;;11.90;97411.00;;;;5035386;28;20216;-87
2023/10/11 04:42:06;;;;;;;63.70;57.97;;;;;11.80;97408.00;;;;5034347;28;20698;-87
2023/10/11 04:44:57;;;;;;;54.20;49.80;;;;;11.60;97408.00;;;;5038038;28;20201;-88
2023/10/11 04:47:52;;;;;;;54.50;49.93;;;;;11.00;97412.00;;;;5027961;28;20201;-87
2023/10/11 04:50:47;;;;;;;56.57;51.73;;;;;10.90;97397.00;;;;5036844;28;20251;-86
2023/10/11 04:53:54;;;;;;;55.33;50.57;;;;;10.80;97397.00;;;;5035860;28;20213;-85
2023/10/11 04:56:56;;;;;;;51.60;47.47;;;;;11.50;97400.00;;;;5030156;28;20708;-87
2023/10/11 04:59:46;;;;;;;52.33;47.97;;;;;11.40;97400.00;;;;5030522;28;20205;-88
2023/10/11 05:02:37;;;;;;;54.93;50.30;;;;;11.10;97390.00;;;;5032053;28;20201;-87
2023/10/11 05:05:27;;;;;;;58.50;53.20;;;;;11.50;97400.00;;;;5031716;28;20218;-88
2023/10/11 05:08:21;;;;;;;67.57;60.47;;;;;11.50;97403.00;;;;5028249;28;20205;-88
2023/10/11 05:11:19;;;;;;;65.60;59.47;;;;;11.60;97408.00;;;;5028174;28;20282;-88
2023/10/11 05:20:44;;;;;;;62.93;57.23;;;;;11.00;97400.00;;;;5035091;28;20213;-87
2023/10/11 05:23:52;;;;;;;59.87;54.70;;;;;11.20;97401.00;;;;5032988;28;20613;-87
2023/10/11 05:26:47;;;;;;;58.73;53.80;;;;;11.10;97402.00;;;;5028208;28;20221;-87
2023/10/11 05:29:52;;;;;;;62.63;57.30;;;;;11.10;97404.00;;;;5032771;28;20225;-88
2023/10/11 05:32:49;;;;;;;57.67;52.73;;;;;11.20;97404.00;;;;5027650;28;20607;-87
2023/10/11 05:36:14;;;;;;;60.57;54.97;;;;;11.60;97409.00;;;;5028755;28;20311;-87
2023/10/11 05:51:31;;;;;;;72.27;64.93;;;;;11.40;97412.00;;;;5029207;28;20237;-86
2023/10/11 05:54:33;;;;;;;78.70;71.10;;;;;11.40;97411.00;;;;5029817;28;20686;-89
2023/10/11 05:57:25;;;;;;;78.63;70.17;;;;;11.70;97421.00;;;;5030293;28;20220;-87
2023/10/11 06:00:23;;;;;;;82.50;72.73;;;;;11.70;97422.00;;;;5032678;28;20209;-87
2023/10/11 06:03:12;;;;;;;81.47;72.73;;;;;12.00;97427.00;;;;5032234;28;20202;-86
2023/10/11 06:06:10;;;;;;;80.60;72.37;;;;;12.00;97413.00;;;;5029915;28;20703;-86
2023/10/11 06:09:01;;;;;;;79.83;71.57;;;;;11.60;97427.00;;;;5030122;28;20217;-85
2023/10/11 06:11:51;;;;;;;84.60;75.37;;;;;11.90;97421.00;;;;5023452;28;20233;-87
2023/10/11 06:14:40;;;;;;;94.50;81.43;;;;;12.40;97428.00;;;;5024630;28;20666;-87
2023/10/11 06:17:41;;;;;;;107.03;86.83;;;;;12.60;97429.00;;;;5029001;28;20215;-86
2023/10/11 06:20:38;;;;;;;93.57;80.80;;;;;12.00;97425.00;;;;5027813;28;20686;-87
2023/10/11 06:23:27;;;;;;;91.43;80.47;;;;;12.00;97413.00;;;;5031283;28;20245;-87
2023/10/11 06:29:26;;;;;;;114.97;91.93;;;;;12.10;97421.00;;;;5027196;28;20213;-87
2023/10/11 06:32:18;;;;;;;108.93;87.50;;;;;12.30;97419.00;;;;5031695;28;20228;-88
2023/10/11 06:35:16;;;;;;;125.73;97.90;;;;;12.10;97419.00;;;;5031445;28;20197;-86
2023/10/11 06:38:05;;;;;;;122.37;93.33;;;;;12.60;97422.00;;;;5034874;28;20197;-86
2023/10/11 06:41:36;;;;;;;125.73;90.87;;;;;13.00;97427.00;;;;5032848;28;20210;-87
2023/10/11 06:44:04;;;;;;;144.33;100.13;;;;;12.90;97424.00;;;;5033900;28;20224;-87
2023/10/11 06:46:55;;;;;;;151.83;103.83;;;;;12.60;97427.00;;;;5035769;28;20221;-86
2023/10/11 06:49:47;;;;;;;150.27;103.03;;;;;12.60;97427.00;;;;5034369;28;20216;-85
2023/10/11 06:52:36;;;;;;;233.10;114.43;;;;;13.50;97432.00;;;;5042050;28;20232;-87
2023/10/11 06:55:25;;;;;;;295.50;134.10;;;;;13.50;97433.00;;;;5037947;28;20220;-85
2023/10/11 06:58:19;;;;;;;307.77;125.00;;;;;13.40;97430.00;;;;5041903;28;20206;-85
2023/10/11 07:01:10;;;;;;;300.10;126.67;;;;;13.50;97432.00;;;;5039755;28;20206;-86
2023/10/11 07:04:01;;;;;;;236.07;124.73;;;;;13.70;97432.00;;;;5037488;28;20569;-87
2023/10/11 08:43:28;;;;;;;335.30;225.03;;;;;20.50;97407.00;;;;5026348;28;20228;-68
2023/10/11 08:46:18;;;;;;;338.00;240.00;;;;;20.70;97402.00;;;;5022974;28;20203;-68
2023/10/11 08:49:07;;;;;;;345.77;244.60;;;;;20.70;97396.00;;;;5027335;28;20253;-68
2023/10/11 08:51:59;;;;;;;346.80;250.67;;;;;21.00;97397.00;;;;5022203;28;20603;-68
2023/10/11 08:54:49;;;;;;;353.43;259.70;;;;;21.40;97394.00;;;;5014855;28;20193;-68
2023/10/11 08:57:38;;;;;;;342.13;261.00;;;;;21.30;97389.00;;;;5017179;28;20210;-68
2023/10/11 09:00:33;;;;;;;350.80;268.43;;;;;21.80;97387.00;;;;5003200;28;20209;-67
2023/10/11 09:03:23;;;;;;;355.43;276.03;;;;;21.10;97393.00;;;;5009845;28;20209;-68
2023/10/11 09:06:21;;;;;;;340.87;276.53;;;;;21.70;97382.00;;;;5008297;28;20232;-68
2023/10/11 09:09:15;;;;;;;347.83;284.20;;;;;22.00;97389.00;;;;5003803;28;20206;-68
2023/10/11 09:12:23;;;;;;;340.27;280.53;;;;;21.50;97384.00;;;;5007525;28;20718;-68
2023/10/11 09:15:14;;;;;;;355.23;292.60;;;;;21.90;97382.00;;;;5004119;28;20203;-68
2023/10/11 09:18:14;;;;;;;341.27;286.70;;;;;21.80;97386.00;;;;5008397;28;20248;-68
2023/10/11 09:21:09;;;;;;;343.17;287.67;;;;;21.90;97383.00;;;;5007603;28;20202;-69
2023/10/11 09:24:00;;;;;;;343.17;297.43;;;;;21.80;97382.00;;;;5005672;28;20205;-68
2023/10/11 09:27:12;;;;;;;339.17;292.83;;;;;21.90;97380.00;;;;5005295;28;20202;-68
2023/10/11 09:30:19;;;;;;;337.73;293.80;;;;;22.00;97373.00;;;;5005799;28;20198;-68
2023/10/11 09:33:18;;;;;;;339.23;300.20;;;;;22.90;97369.00;;;;5007922;28;20226;-68
2023/10/11 09:36:08;;;;;;;349.00;307.47;;;;;23.70;97375.00;;;;5004399;28;20198;-68
2023/10/11 09:38:59;;;;;;;348.30;308.50;;;;;23.20;97376.00;;;;5015767;28;20214;-68
2023/10/11 09:41:53;;;;;;;360.70;321.03;;;;;23.30;97365.00;;;;5007984;28;20229;-68
2023/10/11 09:44:44;;;;;;;368.43;327.57;;;;;24.20;97367.00;;;;4998840;28;20667;-68
2023/10/11 09:47:34;;;;;;;375.20;335.33;;;;;24.20;97359.00;;;;5012501;28;20198;-68
2023/10/11 09:50:26;;;;;;;383.53;344.17;;;;;24.40;97367.00;;;;5010277;28;20610;-68
2023/10/11 09:53:15;;;;;;;389.20;349.57;;;;;24.50;97364.00;;;;5012069;28;20781;-69
2023/10/11 09:56:15;;;;;;;394.40;354.63;;;;;24.50;97363.00;;;;5007473;28;20274;-69
2023/10/11 09:59:19;;;;;;;401.13;361.03;;;;;25.00;97356.00;;;;5005660;28;20577;-69
2023/10/11 10:02:10;;;;;;;412.43;371.53;;;;;25.20;97351.00;;;;4999210;28;20232;-68
2023/10/11 10:05:04;;;;;;;406.43;366.17;;;;;25.00;97354.00;;;;5006096;28;20759;-68
2023/10/11 10:07:55;;;;;;;417.27;376.40;;;;;25.50;97346.00;;;;5011662;28;20206;-69
2023/10/11 10:10:54;;;;;;;433.30;389.67;;;;;25.20;97348.00;;;;5013655;28;20198;-68
2023/10/11 10:14:02;;;;;;;420.73;378.43;;;;;25.90;97352.00;;;;5006940;28;20217;-68
2023/10/11 10:17:11;;;;;;;426.40;383.70;;;;;26.10;97342.00;;;;5012004;28;20209;-69
2023/10/11 10:20:42;;;;;;;434.20;391.13;;;;;26.10;97342.00;;;;5016318;28;20204;-68
2023/10/11 10:23:37;;;;;;;447.67;406.87;;;;;26.90;97353.00;;;;5009528;28;20196;-69
2023/10/11 10:26:26;;;;;;;467.83;427.87;;;;;27.00;97342.00;;;;5009437;28;20549;-69
2023/10/11 10:29:15;;;;;;;496.77;455.40;;;;;27.60;97337.00;;;;5008413;28;20210;-69
2023/10/11 10:32:08;;;;;;;510.50;472.03;;;;;27.30;97340.00;;;;5003249;28;20227;-70
2023/10/11 10:35:37;;;;;;;524.40;486.93;;;;;27.40;97340.00;;;;5008300;28;20227;-70
2023/10/11 10:39:36;;;;;;;534.13;495.77;;;;;28.30;97337.00;;;;5008898;28;20200;-69
2023/10/11 10:42:24;;;;;;;555.60;514.07;;;;;28.80;97330.00;;;;5004800;28;20266;-69
2023/10/11 10:45:13;;;;;;;578.40;534.33;;;;;29.00;97327.00;;;;5011301;28;20627;-69
2023/10/11 10:48:14;;;;;;;584.37;542.17;;;;;29.10;97330.00;;;;5008890;28;20203;-70
2023/10/11 10:51:05;;;;;;;597.00;553.83;;;;;29.50;97323.00;;;;5010818;28;20198;-70
2023/10/11 10:53:54;;;;;;;602.07;559.40;;;;;29.00;97325.00;;;;5007274;28;20766;-70
2023/10/11 10:56:47;;;;;;;616.73;572.97;;;;;29.80;97316.00;;;;5006736;28;20202;-69
2023/10/11 10:59:36;;;;;;;629.17;583.53;;;;;30.40;97307.00;;;;5017293;28;20208;-70
2023/10/11 11:02:38;;;;;;;;;;;;;30.20;97315.00;;;;5017016;28;20049;-70
2023/10/11 11:05:29;;;;;;;;;;;;;30.80;97308.00;;;;5011387;28;20367;-70
2023/10/11 11:08:24;;;;;;;;;;;;;31.30;97311.00;;;;5008043;28;19921;-70
2023/10/11 11:11:25;;;;;;;;;;;;;31.00;97302.00;;;;5010123;28;20319;-70
2023/10/11 11:14:14;;;;;;;;;;;;;30.80;97306.00;;;;5009192;28;19921;-70
2023/10/11 11:17:08;;;;;;;;;;;;;31.60;97297.00;;;;5011591;28;19930;-70
2023/10/11 11:20:12;;;;;;;;;;;;;31.30;97290.00;;;;5009484;28;19925;-70
2023/10/11 11:23:01;;;;;;;;;;;;;31.90;97286.00;;;;5008859;28;19925;-70
2023/10/11 11:25:51;;;;;;;;;;;;;32.30;97287.00;;;;5009803;28;19921;-71
2023/10/11 11:28:43;;;;;;;;;;;;;32.90;97283.00;;;;5012236;28;19937;-71
2023/10/11 11:31:38;;;;;;;;;;;;;33.00;97283.00;;;;5010609;28;19926;-71
2023/10/11 11:34:34;;;;;;;;;;;;;33.80;97279.00;;;;5011933;28;19929;-72
2023/10/11 11:37:24;;;;;;;;;;;;;33.60;97281.00;;;;5010894;28;19925;-71
2023/10/11 11:40:23;;;;;;;;;;;;;34.10;97276.00;;;;5009850;28;19922;-71
2023/10/11 11:43:11;;;;;;;;;;;;;34.20;97272.00;;;;5008602;28;19932;-71
2023/10/11 11:46:03;;;;;;;;;;;;;34.10;97274.00;;;;5009834;28;19925;-72
2023/10/11 11:48:51;;;;;;;;;;;;;34.10;97266.00;;;;5005923;28;20401;-71
2023/10/11 11:51:40;;;;;;;;;;;;;34.40;97261.00;;;;5006293;28;19935;-71
2023/10/11 11:54:28;;;;;;;;;;;;;34.90;97271.00;;;;5006780;28;19928;-71
2023/10/11 11:57:28;;;;;;;;;;;;;34.70;97258.00;;;;5002572;28;19932;-72
2023/10/11 12:03:36;;;;;;;;;;;;;35.20;97246.00;;;;4981118;28;19921;-70
2023/10/11 12:06:26;;;;;;;;;;;;;33.20;97248.00;;;;5014514;28;19921;-70
2023/10/11 12:09:20;;;;;;;;;;;;;35.10;97243.00;;;;5008871;28;19926;-73
2023/10/11 12:12:10;;;;;;;;;;;;;35.10;97236.00;;;;5011446;28;20440;-69
2023/10/11 12:15:00;;;;;;;;;;;;;34.40;97247.00;;;;5007173;28;20333;-68
2023/10/11 12:17:53;;;;;;;;;;;;;35.40;97237.00;;;;5009485;28;19928;-69
2023/10/11 12:20:46;;;;;;;;;;;;;35.20;97235.00;;;;5010593;28;19925;-69
2023/10/11 12:23:36;;;;;;;;;;;;;34.60;97232.00;;;;5010159;28;19953;-68
2023/10/11 12:26:26;;;;;;;;;;;;;35.00;97233.00;;;;5010289;28;19929;-69
2023/10/11 12:29:18;;;;;;;;;;;;;35.60;97236.00;;;;5010634;28;19926;-67
2023/10/11 12:32:07;;;;;;;;;;;;;32.20;97225.00;;;;5010268;28;19922;-68
2023/10/11 12:34:56;;;;;;;;;;;;;34.40;97226.00;;;;5006782;28;19932;-68
2023/10/11 12:37:46;;;;;;;;;;;;;35.30;97227.00;;;;5006402;28;19921;-67
2023/10/11 12:40:35;;;;;;;;;;;;;35.80;97231.00;;;;5007722;28;19921;-69
2023/10/11 12:43:24;;;;;;;;;;;;;36.60;97223.00;;;;5009019;28;20303;-68
2023/10/11 12:46:16;;;;;;;;;;;;;36.30;97223.00;;;;5007104;28;19921;-68
2023/10/11 12:49:12;;;;;;;;;;;;;36.70;97228.00;;;;5010956;28;19925;-68
2023/10/11 12:52:05;;;;;;;;;;;;;36.80;97223.00;;;;5028215;23;19929;-65
2023/10/11 12:55:01;;;;;;;;;;;;;37.10;97224.00;;;;5062124;28;19928;-64
2023/10/11 12:57:50;;;;;;;;;;;;;37.00;97219.00;;;;5061118;28;19921;-65
2023/10/11 13:00:47;;;;;;;;;;;;;37.50;97223.00;;;;5066596;28;19921;-65
2023/10/11 13:03:38;;;;;;;;;;;;;37.40;97213.00;;;;5046441;28;19935;-64
2023/10/11 13:06:27;;;;;;;;;;;;;37.60;97220.00;;;;5044150;28;20432;-65
2023/10/11 13:09:21;;;;;;;;;;;;;37.60;97215.00;;;;5040461;28;19931;-65
2023/10/11 13:12:17;;;;;;;;;;;;;38.10;97210.00;;;;5045479;28;20389;-65
2023/10/11 13:15:16;;;;;;;;;;;;;38.00;97211.00;;;;5041274;28;19929;-65
2023/10/11 13:18:09;;;;;;;;;;;;;38.70;97205.00;;;;5042504;28;19936;-65
2023/10/11 13:20:59;;;;;;;;;;;;;38.60;97207.00;;;;5040746;28;19990;-65
2023/10/11 13:23:48;;;;;;;;;;;;;38.60;97207.00;;;;5039004;28;19928;-65
2023/10/11 13:26:42;;;;;;;;;;;;;38.20;97201.00;;;;5039962;28;19921;-65
2023/10/11 13:29:32;;;;;;;;;;;;;37.40;97207.00;;;;5039701;28;19924;-65
2023/10/11 13:32:21;;;;;;;;;;;;;36.30;97208.00;;;;5040455;28;20409;-65
2023/10/11 13:35:12;;;;;;;;;;;;;37.10;97198.00;;;;5038963;28;19921;-65
2023/10/11 13:38:04;;;;;;;;;;;;;37.10;97199.00;;;;5044480;28;19924;-64
2023/10/11 13:40:56;;;;;;;;;;;;;36.80;97203.00;;;;5038098;28;19921;-65
2023/10/11 13:43:45;;;;;;;;;;;;;36.20;97194.00;;;;5039106;28;19925;-65
2023/10/11 13:46:35;;;;;;;;;;;;;36.90;97200.00;;;;5040147;28;19921;-65
2023/10/11 13:49:30;;;;;;;;;;;;;37.40;97202.00;;;;5040361;28;20120;-64
2023/10/11 13:52:20;;;;;;;;;;;;;37.30;97201.00;;;;5038817;28;19925;-65
2023/10/11 13:55:11;;;;;;;;;;;;;37.30;97190.00;;;;5041721;28;19921;-65
2023/10/11 13:58:00;;;;;;;;;;;;;37.70;97194.00;;;;5039240;28;19920;-65
2023/10/11 14:03:54;;;;;;;;;;;;;37.30;97193.00;;;;5047968;28;19931;-65
2023/10/11 14:06:59;;;;;;;;;;;;;37.30;97197.00;;;;5047984;28;20174;-65
2023/10/11 14:09:53;;;;;;;;;;;;;35.20;97188.00;;;;5040263;28;19920;-64
2023/10/11 14:12:42;;;;;;;;;;;;;36.60;97185.00;;;;5042685;28;19920;-65
2023/10/11 14:15:32;;;;;;;;;;;;;37.30;97188.00;;;;5041561;28;19936;-65
2023/10/11 14:18:21;;;;;;;;;;;;;37.50;97191.00;;;;5044038;28;19925;-65
2023/10/11 14:21:12;;;;;;;;;;;;;37.50;97190.00;;;;5044461;28;19925;-64
2023/10/11 14:24:01;;;;;;;;;;;;;37.80;97188.00;;;;5043878;28;19928;-65
2023/10/11 14:26:49;;;;;;;;;;;;;38.10;97182.00;;;;5045013;28;19924;-64
2023/10/11 14:29:38;;;;;;;;;;;;;38.00;97185.00;;;;5043066;28;19928;-64
2023/10/11 14:32:27;;;;;;;;;;;;;37.40;97183.00;;;;5042671;28;20400;-64
2023/10/11 14:35:16;;;;;;;;;;;;;37.10;97177.00;;;;5043861;28;19928;-64
2023/10/11 14:38:09;;;;;;;;;;;;;36.90;97182.00;;;;5041972;28;19925;-65
2023/10/11 14:40:58;;;;;;;;;;;;;36.50;97181.00;;;;5044039;28;19940;-64
2023/10/11 14:43:46;;;;;;;;;;;;;36.70;97170.00;;;;5040645;28;19931;-64
2023/10/11 14:46:38;;;;;;;;;;;;;36.80;97180.00;;;;5043416;28;19927;-65
2023/10/11 14:49:29;;;;;;;;;;;;;36.30;97180.00;;;;5044258;28;19931;-64
2023/10/11 14:52:18;;;;;;;;;;;;;35.20;97181.00;;;;5041776;28;20366;-64
2023/10/11 14:55:09;;;;;;;;;;;;;34.30;97172.00;;;;5043899;28;19925;-64
2023/10/11 14:57:58;;;;;;;;;;;;;34.40;97176.00;;;;5042617;28;19928;-65
2023/10/11 15:00:47;;;;;;;;;;;;;30.80;97164.00;;;;5041269;28;19925;-64
2023/10/11 15:03:36;;;;;;;;;;;;;29.00;97162.00;;;;5043764;28;20287;-63
2023/10/11 15:06:25;;;;;;;;;;;;;28.90;97173.00;;;;5044572;28;19921;-65
2023/10/11 15:09:16;;;;;;;;;;;;;28.40;97173.00;;;;5047315;28;20382;-64
2023/10/11 15:12:06;;;;;;;;;;;;;26.60;97204.00;;;;5049214;28;19932;-65
2023/10/11 15:14:55;;;;;;;;;;;;;25.50;97200.00;;;;5045761;28;19920;-65
2023/10/11 15:17:44;;;;;;;;;;;;;24.60;97207.00;;;;5044095;28;19935;-64
2023/10/11 15:20:33;;;;;;;;;;;;;25.50;97205.00;;;;5048234;28;19921;-64
2023/10/11 15:23:23;;;;;;;;;;;;;24.20;97201.00;;;;5049539;28;19924;-64
2023/10/11 15:26:12;;;;;;;;;;;;;23.20;97199.00;;;;5046328;28;19925;-64
2023/10/11 15:29:06;;;;;;;;;;;;;23.70;97197.00;;;;5048547;28;19943;-66
2023/10/11 15:31:55;;;;;;;;;;;;;23.40;97199.00;;;;5043611;28;19960;-64
2023/10/11 15:34:44;;;;;;;;;;;;;23.50;97200.00;;;;5047629;28;19921;-64
2023/10/11 15:37:33;;;;;;;;;;;;;23.10;97201.00;;;;5043125;28;19921;-64
2023/10/11 15:40:26;;;;;;;388.20;350.43;;;;;22.50;97204.00;;;;5047564;28;19926;-64
2023/10/11 15:43:18;;;;;;;375.40;340.53;;;;;22.20;97199.00;;;;5046806;28;20225;-64
2023/10/11 15:46:08;;;;;;;375.77;341.93;;;;;22.50;97211.00;;;;5043912;28;20205;-63
2023/10/11 15:49:00;;;;;;;360.27;328.53;;;;;22.00;97210.00;;;;5043303;28;20205;-63
2023/10/11 15:51:50;;;;;;;347.57;317.37;;;;;21.80;97220.00;;;;5045260;28;20246;-63
2023/10/11 15:54:39;;;;;;;346.17;316.27;;;;;22.10;97209.00;;;;5046526;28;20208;-63
2023/10/11 15:57:28;;;;;;;354.87;323.87;;;;;22.00;97215.00;;;;5047991;28;20216;-64
2023/10/11 16:00:19;;;;;;;343.93;314.13;;;;;21.70;97216.00;;;;5047524;28;20220;-64
2023/10/11 16:03:10;;;;;;;321.27;293.10;;;;;20.80;97211.00;;;;5047317;28;20228;-64
2023/10/11 16:06:00;;;;;;;310.77;284.70;;;;;21.00;97217.00;;;;5044001;28;20227;-64
2023/10/11 16:08:50;;;;;;;302.80;276.87;;;;;20.90;97218.00;;;;5044582;28;20193;-69
2023/10/11 16:11:39;;;;;;;295.40;269.80;;;;;21.40;97223.00;;;;5050247;28;20204;-63
2023/10/11 16:14:31;;;;;;;307.60;279.53;;;;;21.10;97218.00;;;;5047886;28;20585;-63
2023/10/11 16:17:20;;;;;;;311.63;282.70;;;;;20.90;97223.00;;;;5047750;28;20230;-64
2023/10/11 16:20:11;;;;;;;297.07;269.20;;;;;21.20;97230.00;;;;5047808;28;20602;-64
2023/10/11 16:23:00;;;;;;;288.63;261.87;;;;;20.90;97224.00;;;;5047686;28;20232;-64
2023/10/11 16:25:49;;;;;;;291.03;264.13;;;;;21.20;97224.00;;;;5046921;28;20196;-63
2023/10/11 16:28:39;;;;;;;290.90;263.77;;;;;21.20;97232.00;;;;5047688;28;20207;-64
2023/10/11 16:31:28;;;;;;;303.30;273.57;;;;;20.90;97234.00;;;;5044865;28;20209;-64